Time;durP1;ratioP1;P1;durP2;ratioP2;P2;SDS_P1;SDS_P2;PMS_P1;PMS_P2;Temp;Humidity;BMP_temperature;BMP_pressure;BME280_temperature;BME280_humidity;BME280_pressure;Samples;Min_cycle;Max_cycle;Signal;HPM_P1;HPM_P2
2021/03/07 00:00:50;;;;;;;25.90;11.32;;;;;;;-2.20;100.00;98857.63;5015358;28;20500;-76
2021/03/07 00:03:19;;;;;;;20.05;10.25;;;;;;;-2.22;100.00;98855.16;5030981;28;20041;-77
2021/03/07 00:05:45;;;;;;;19.40;10.13;;;;;;;-2.18;100.00;98850.28;5029940;28;20041;-76
2021/03/07 00:08:11;;;;;;;20.48;9.48;;;;;;;-2.21;100.00;98846.19;5030456;28;20037;-77
2021/03/07 00:10:37;;;;;;;21.58;9.35;;;;;;;-2.21;100.00;98848.03;4996538;28;20038;-77
2021/03/07 00:13:03;;;;;;;21.92;10.43;;;;;;;-2.21;100.00;98846.19;5030102;28;20042;-77
2021/03/07 00:15:29;;;;;;;25.20;11.75;;;;;;;-2.15;100.00;98848.03;5025266;28;20044;-77
2021/03/07 00:17:58;;;;;;;24.83;10.85;;;;;;;-2.16;100.00;98838.44;4992384;28;20053;-77
2021/03/07 00:20:25;;;;;;;26.77;11.45;;;;;;;-2.13;100.00;98834.56;5010228;28;20116;-78
2021/03/07 00:22:51;;;;;;;23.70;11.50;;;;;;;-2.09;100.00;98841.91;5013893;28;20618;-77
2021/03/07 00:25:18;;;;;;;27.15;11.18;;;;;;;-2.00;100.00;98831.91;5012154;28;20048;-80
2021/03/07 00:27:45;;;;;;;25.27;12.05;;;;;;;-1.96;100.00;98835.75;5013754;28;20042;-77
2021/03/07 00:30:14;;;;;;;29.58;12.32;;;;;;;-2.00;100.00;98830.06;5012321;28;20490;-78
2021/03/07 00:32:41;;;;;;;25.80;12.02;;;;;;;-2.03;100.00;98835.78;5014004;28;20050;-78
2021/03/07 00:35:09;;;;;;;28.95;12.65;;;;;;;-1.99;100.00;98820.28;5003322;28;20072;-78
2021/03/07 00:37:35;;;;;;;25.73;12.07;;;;;;;-2.06;100.00;98822.94;5012727;28;20046;-78
2021/03/07 00:40:01;;;;;;;28.60;12.98;;;;;;;-2.03;100.00;98816.41;5013543;28;20144;-77
2021/03/07 00:42:28;;;;;;;31.85;13.23;;;;;;;-1.91;100.00;98823.50;5011859;28;20062;-77
2021/03/07 00:44:55;;;;;;;26.00;12.60;;;;;;;-1.93;100.00;98811.47;5012190;28;20049;-77
2021/03/07 00:47:21;;;;;;;29.85;12.48;;;;;;;-2.00;100.00;98815.97;5011760;28;20056;-77
2021/03/07 00:49:48;;;;;;;24.42;12.43;;;;;;;-1.96;100.00;98809.22;5013586;28;20096;-78
2021/03/07 00:52:15;;;;;;;30.35;12.77;;;;;;;-2.00;100.00;98802.72;5012959;28;20067;-78
2021/03/07 00:54:43;;;;;;;30.45;12.77;;;;;;;-1.97;100.00;98795.19;5013645;28;20045;-78
2021/03/07 00:57:10;;;;;;;33.25;14.00;;;;;;;-1.96;100.00;98798.63;4995479;28;20477;-78
2021/03/07 00:59:37;;;;;;;38.03;15.52;;;;;;;-1.91;100.00;98799.63;5011451;28;20472;-77
2021/03/07 01:02:04;;;;;;;43.60;15.90;;;;;;;-1.84;100.00;98804.13;5011462;28;20493;-77
2021/03/07 01:04:30;;;;;;;42.05;16.13;;;;;;;-1.92;100.00;98786.59;5012079;28;20069;-77
2021/03/07 01:06:56;;;;;;;53.00;17.45;;;;;;;-1.90;100.00;98785.34;5012844;28;20053;-77
2021/03/07 01:09:23;;;;;;;44.45;17.20;;;;;;;-1.94;100.00;98794.78;5013798;28;20102;-78
2021/03/07 01:12:02;;;;;;;49.92;16.85;;;;;;;-1.94;100.00;98788.63;5027171;28;20082;-78
2021/03/07 01:14:29;;;;;;;40.65;16.50;;;;;;;-1.90;100.00;98785.34;4996354;28;20057;-76
2021/03/07 01:16:55;;;;;;;42.03;17.02;;;;;;;-1.99;100.00;98773.31;5013383;28;20049;-78
2021/03/07 01:19:22;;;;;;;39.78;16.60;;;;;;;-1.97;100.00;98775.78;5028548;28;20046;-76
2021/03/07 01:21:48;;;;;;;50.47;17.52;;;;;;;-1.98;100.00;98768.84;5013528;28;20049;-76
2021/03/07 01:24:14;;;;;;;50.22;17.83;;;;;;;-2.02;100.00;98763.16;5013557;28;20397;-77
2021/03/07 01:26:41;;;;;;;39.45;15.93;;;;;;;-2.01;100.00;98758.63;5011951;28;20052;-77
2021/03/07 01:29:07;;;;;;;40.63;15.75;;;;;;;-2.05;100.00;98760.91;5012997;28;20046;-77
2021/03/07 01:31:33;;;;;;;39.67;15.32;;;;;;;-2.07;100.00;98746.22;5010934;28;20048;-77
2021/03/07 01:33:59;;;;;;;35.78;14.95;;;;;;;-2.09;100.00;98746.41;4995581;28;20034;-78
2021/03/07 01:36:27;;;;;;;29.40;13.85;;;;;;;-2.14;100.00;98748.06;5011485;28;20057;-77
2021/03/07 01:38:55;;;;;;;35.92;15.40;;;;;;;-2.21;100.00;98744.59;4996548;28;20046;-78
2021/03/07 01:41:24;;;;;;;33.65;14.35;;;;;;;-2.32;100.00;98731.97;4998193;28;20053;-78
2021/03/07 01:43:51;;;;;;;34.80;14.45;;;;;;;-2.32;100.00;98729.31;5012950;28;20042;-77
2021/03/07 01:46:17;;;;;;;34.08;14.95;;;;;;;-2.35;100.00;98732.38;5012220;28;20042;-76
2021/03/07 01:48:45;;;;;;;40.05;14.88;;;;;;;-2.39;100.00;98720.53;4995222;28;20042;-77
2021/03/07 01:51:12;;;;;;;35.70;15.38;;;;;;;-2.47;100.00;98721.56;5012902;28;20046;-77
2021/03/07 01:53:40;;;;;;;38.08;14.55;;;;;;;-2.47;100.00;98718.09;5012779;28;20046;-77
2021/03/07 01:56:09;;;;;;;32.28;14.10;;;;;;;-2.53;100.00;98696.69;4994648;28;20444;-77
2021/03/07 01:58:37;;;;;;;34.97;14.38;;;;;;;-2.56;100.00;98704.25;5012158;28;20073;-77
2021/03/07 02:01:05;;;;;;;34.42;15.43;;;;;;;-2.53;100.00;98707.28;5011633;28;20057;-77
2021/03/07 02:03:32;;;;;;;31.45;14.18;;;;;;;-2.52;100.00;98700.16;5014436;28;20096;-77
2021/03/07 02:06:00;;;;;;;32.38;13.95;;;;;;;-2.58;100.00;98699.16;5011811;28;20046;-77
2021/03/07 02:08:27;;;;;;;33.22;14.77;;;;;;;-2.57;100.00;98705.25;4994980;28;20053;-77
2021/03/07 02:10:55;;;;;;;36.25;15.30;;;;;;;-2.62;100.00;98695.28;5010995;28;20060;-77
2021/03/07 02:13:35;;;;;;;35.75;15.23;;;;;;;-2.69;100.00;98685.72;5011118;28;20042;-77
2021/03/07 02:16:06;;;;;;;38.28;15.45;;;;;;;-2.74;100.00;98680.22;5010755;28;20486;-77
2021/03/07 02:18:34;;;;;;;39.42;15.50;;;;;;;-2.84;100.00;98683.25;5011464;28;20456;-77
2021/03/07 02:21:13;;;;;;;33.75;15.90;;;;;;;-2.83;100.00;98679.59;5011192;28;20631;-77
2021/03/07 02:24:03;;;;;;;35.72;14.88;;;;;;;-2.82;100.00;98688.34;5013990;28;20385;-76
2021/03/07 02:26:31;;;;;;;30.60;14.30;;;;;;;-2.82;100.00;98678.59;5003377;28;20069;-76
2021/03/07 02:28:57;;;;;;;36.78;14.88;;;;;;;-2.79;100.00;98686.13;5002184;28;20049;-76
2021/03/07 02:31:25;;;;;;;29.98;14.77;;;;;;;-2.78;100.00;98677.13;5014254;28;20049;-77
2021/03/07 02:34:11;;;;;;;28.45;14.35;;;;;;;-2.88;100.00;98673.25;5024251;28;20088;-76
2021/03/07 02:36:45;;;;;;;34.67;14.77;;;;;;;-2.89;100.00;98685.69;5014004;28;20491;-77
2021/03/07 02:39:12;;;;;;;39.15;14.48;;;;;;;-2.87;100.00;98686.31;5025663;28;20045;-77
2021/03/07 02:41:40;;;;;;;30.67;14.52;;;;;;;-2.90;100.00;98685.91;5027244;28;20042;-78
2021/03/07 02:44:11;;;;;;;31.67;14.07;;;;;;;-2.92;100.00;98685.31;5030066;28;20554;-77
2021/03/07 02:46:38;;;;;;;29.77;13.43;;;;;;;-2.93;100.00;98667.75;5031525;28;20056;-76
2021/03/07 02:49:11;;;;;;;28.80;13.82;;;;;;;-3.03;100.00;98673.47;5030517;28;20041;-77
2021/03/07 02:51:37;;;;;;;32.03;13.63;;;;;;;-3.03;100.00;98654.94;5039997;28;20104;-79
2021/03/07 02:54:08;;;;;;;29.00;12.63;;;;;;;-3.11;100.00;98663.06;5032413;28;20417;-77
2021/03/07 02:56:37;;;;;;;36.65;14.20;;;;;;;-3.16;100.00;98654.91;5031656;28;20034;-78
2021/03/07 02:59:12;;;;;;;30.00;13.07;;;;;;;-3.19;100.00;98669.38;5030951;28;20394;-79
2021/03/07 03:01:40;;;;;;;34.05;14.50;;;;;;;-3.19;100.00;98661.44;5031264;28;20052;-77
2021/03/07 03:04:08;;;;;;;37.88;14.73;;;;;;;-3.26;100.00;98651.84;5031860;28;20046;-77
2021/03/07 03:06:41;;;;;;;31.13;13.68;;;;;;;-3.27;100.00;98651.03;5032417;28;20072;-77
2021/03/07 03:09:09;;;;;;;34.78;14.35;;;;;;;-3.26;100.00;98654.50;5030856;28;20041;-78
2021/03/07 03:11:39;;;;;;;41.38;15.23;;;;;;;-3.33;100.00;98646.53;5031893;28;20030;-77
2021/03/07 03:14:12;;;;;;;33.65;14.95;;;;;;;-3.32;100.00;98650.00;5030013;28;20052;-79
2021/03/07 03:16:43;;;;;;;34.17;14.63;;;;;;;-3.39;100.00;98644.72;5029999;28;20045;-77
2021/03/07 03:19:10;;;;;;;37.92;14.43;;;;;;;-3.41;100.00;98649.41;5030879;28;20063;-78
2021/03/07 03:21:38;;;;;;;31.60;14.10;;;;;;;-3.42;100.00;98649.59;5037670;28;20053;-79
2021/03/07 03:24:07;;;;;;;29.40;13.13;;;;;;;-3.37;100.00;98640.03;5035579;28;20053;-77
2021/03/07 03:26:33;;;;;;;28.23;13.73;;;;;;;-3.40;100.00;98640.44;5013996;28;20061;-78
2021/03/07 03:29:03;;;;;;;29.60;13.25;;;;;;;-3.38;100.00;98641.03;5030054;28;20053;-77
2021/03/07 03:31:29;;;;;;;25.80;12.05;;;;;;;-3.36;100.00;98640.84;5030146;28;20045;-77
2021/03/07 03:33:55;;;;;;;28.80;13.15;;;;;;;-3.35;100.00;98634.53;5031455;28;20504;-77
2021/03/07 03:36:21;;;;;;;26.88;12.35;;;;;;;-3.49;100.00;98628.41;5030526;28;20127;-77
2021/03/07 03:38:57;;;;;;;30.20;12.18;;;;;;;-3.49;100.00;98623.13;5030329;28;20140;-78
2021/03/07 03:41:25;;;;;;;24.88;10.98;;;;;;;-3.57;100.00;98625.13;5029666;28;20420;-78
2021/03/07 03:43:55;;;;;;;23.25;11.68;;;;;;;-3.57;100.00;98611.91;5029003;28;20045;-79
2021/03/07 03:46:24;;;;;;;37.10;11.32;;;;;;;-3.58;100.00;98618.19;5030754;28;20048;-78
2021/03/07 03:49:03;;;;;;;22.20;11.45;;;;;;;-3.62;100.00;98606.41;5031142;28;20059;-77
2021/03/07 03:51:35;;;;;;;22.20;11.25;;;;;;;-3.66;100.00;98607.81;5030678;28;20041;-79
2021/03/07 03:54:02;;;;;;;26.20;12.20;;;;;;;-3.69;100.00;98608.22;5031949;28;20061;-79
2021/03/07 03:56:30;;;;;;;22.70;11.40;;;;;;;-3.79;100.00;98603.28;5031784;28;20049;-79
2021/03/07 03:58:57;;;;;;;24.52;11.70;;;;;;;-3.75;100.00;98590.50;5031161;28;20088;-78
2021/03/07 04:01:24;;;;;;;22.60;10.40;;;;;;;-3.77;100.00;98599.44;5032582;28;20659;-78
2021/03/07 04:03:53;;;;;;;20.25;10.23;;;;;;;-3.80;100.00;98599.84;5032337;28;20041;-78
2021/03/07 04:06:29;;;;;;;21.67;9.90;;;;;;;-3.84;100.00;98590.69;5033106;28;20049;-81
2021/03/07 04:08:55;;;;;;;25.42;11.02;;;;;;;-3.80;100.00;98581.34;5031232;28;20056;-78
2021/03/07 04:11:23;;;;;;;21.60;9.98;;;;;;;-3.74;100.00;98589.50;5031154;28;20053;-81
2021/03/07 04:13:52;;;;;;;19.25;10.10;;;;;;;-3.78;100.00;98581.13;5030958;28;20049;-79
2021/03/07 04:16:18;;;;;;;20.42;9.80;;;;;;;-3.85;100.00;98577.66;5030973;28;20052;-79
2021/03/07 04:21:36;;;;;;;22.10;10.65;;;;;;;-3.96;100.00;98579.06;5009247;28;20050;-78
2021/03/07 04:27:41;;;;;;;29.05;11.98;;;;;;;-4.06;100.00;98561.94;5000755;28;20050;-79
2021/03/07 04:30:46;;;;;;;;;;;;;;;;;;;;;
2021/03/07 04:33:33;;;;;;;27.15;11.27;;;;;;;-4.34;100.00;98511.84;5000008;28;20065;-79
2021/03/07 04:36:08;;;;;;;22.40;9.98;;;;;;;-4.36;100.00;98518.34;4996562;28;20059;-78
2021/03/07 04:38:42;;;;;;;22.95;11.68;;;;;;;-4.38;100.00;98531.75;4995440;28;20049;-78
2021/03/07 04:41:16;;;;;;;25.92;12.02;;;;;;;-4.34;100.00;98522.41;4995223;28;20051;-79
2021/03/07 04:44:00;;;;;;;24.85;11.48;;;;;;;-4.42;100.00;98509.38;4994225;28;20126;-78
2021/03/07 04:46:37;;;;;;;26.95;12.70;;;;;;;-4.28;100.00;98536.66;4997900;28;20042;-78
2021/03/07 04:49:06;;;;;;;26.85;12.43;;;;;;;-4.15;100.00;98548.06;4998266;28;20060;-78
2021/03/07 04:51:33;;;;;;;24.40;12.05;;;;;;;-4.06;100.00;98556.66;4996514;28;20055;-79
2021/03/07 04:54:03;;;;;;;22.75;11.70;;;;;;;-4.08;100.00;98543.66;5021093;28;20428;-78
2021/03/07 04:56:31;;;;;;;25.50;12.05;;;;;;;-4.41;100.00;98498.59;5014477;28;20046;-78
2021/03/07 04:58:58;;;;;;;24.10;11.75;;;;;;;-4.24;100.00;98536.06;4995817;28;20465;-79
2021/03/07 05:01:24;;;;;;;20.38;10.88;;;;;;;-4.19;100.00;98546.03;5005577;28;20072;-79
2021/03/07 05:03:52;;;;;;;24.30;11.60;;;;;;;-4.38;100.00;98531.75;4997692;28;20129;-79
2021/03/07 05:06:19;;;;;;;31.33;11.98;;;;;;;-4.23;100.00;98539.53;5001953;28;20066;-78
2021/03/07 05:08:47;;;;;;;20.25;11.75;;;;;;;-4.40;100.00;98491.50;5002832;28;20050;-79
2021/03/07 05:11:15;;;;;;;22.95;11.00;;;;;;;-4.28;100.00;98526.09;5002906;28;20044;-77
2021/03/07 05:13:41;;;;;;;20.13;10.43;;;;;;;-4.28;100.00;98532.19;5002233;28;20081;-79
2021/03/07 05:16:08;;;;;;;23.27;11.07;;;;;;;-4.33;100.00;98529.31;5001436;28;20042;-78
2021/03/07 05:18:35;;;;;;;21.48;10.93;;;;;;;-4.32;100.00;98520.38;5024046;28;20054;-78
2021/03/07 05:21:02;;;;;;;24.92;10.70;;;;;;;-4.37;100.00;98519.34;5026241;28;20070;-78
2021/03/07 05:23:28;;;;;;;21.15;11.02;;;;;;;-4.32;100.00;98522.22;5024473;28;20133;-78
2021/03/07 05:25:54;;;;;;;22.75;10.90;;;;;;;-4.39;100.00;98513.44;5025276;28;20046;-78
2021/03/07 05:28:21;;;;;;;25.50;11.77;;;;;;;-4.37;100.00;98522.00;5022836;28;20033;-78
2021/03/07 05:30:47;;;;;;;24.10;11.68;;;;;;;-4.41;100.00;98513.63;5018797;28;20105;-79
2021/03/07 05:33:16;;;;;;;23.17;10.68;;;;;;;-4.43;100.00;98515.66;5024734;28;20053;-79
2021/03/07 05:35:43;;;;;;;23.08;11.40;;;;;;;-4.36;100.00;98523.63;5024708;28;20109;-80
2021/03/07 05:38:11;;;;;;;23.05;11.65;;;;;;;-4.33;100.00;98510.81;5031727;28;20044;-78
2021/03/07 05:40:37;;;;;;;26.45;11.50;;;;;;;-4.31;100.00;98519.34;5034183;28;20140;-78
2021/03/07 05:43:05;;;;;;;21.85;10.77;;;;;;;-4.40;100.00;98510.00;5032857;28;20129;-79
2021/03/07 05:45:31;;;;;;;22.48;10.95;;;;;;;-4.40;100.00;98515.28;5032451;28;20044;-80
2021/03/07 05:47:57;;;;;;;18.25;10.23;;;;;;;-4.38;100.00;98509.78;5033714;28;20042;-79
2021/03/07 05:50:25;;;;;;;18.60;9.85;;;;;;;-4.42;100.00;98504.91;5030591;28;20086;-79
2021/03/07 05:52:56;;;;;;;20.85;9.98;;;;;;;-4.40;100.00;98502.06;5015676;28;20037;-79
2021/03/07 05:55:27;;;;;;;24.25;10.57;;;;;;;-4.42;100.00;98499.63;5016612;28;20029;-79
2021/03/07 05:57:58;;;;;;;20.48;9.60;;;;;;;-4.38;100.00;98504.50;5018664;28;20034;-77
2021/03/07 06:00:25;;;;;;;19.20;10.48;;;;;;;-4.28;100.00;98511.03;5003415;28;20042;-78
2021/03/07 06:02:53;;;;;;;20.67;9.93;;;;;;;-4.32;100.00;98504.53;5017853;28;20050;-78
2021/03/07 06:05:20;;;;;;;22.15;10.15;;;;;;;-4.25;100.00;98510.63;5023458;28;20049;-79
2021/03/07 06:07:47;;;;;;;30.30;10.48;;;;;;;-4.23;100.00;98513.91;5024497;28;20113;-78
2021/03/07 06:10:40;;;;;;;22.33;10.15;;;;;;;-4.25;100.00;98515.94;5023158;28;20390;-78
2021/03/07 06:13:11;;;;;;;24.90;10.38;;;;;;;-4.18;100.00;98516.75;5021412;28;20065;-79
2021/03/07 06:15:50;;;;;;;21.75;10.13;;;;;;;-4.22;100.00;98510.25;5017023;28;20096;-78
2021/03/07 06:18:20;;;;;;;20.80;10.52;;;;;;;-4.28;100.00;98515.53;5020254;28;20125;-80
2021/03/07 06:20:52;;;;;;;18.70;10.63;;;;;;;-4.12;100.00;98525.72;5016448;28;20105;-82
2021/03/07 06:23:32;;;;;;;25.83;11.13;;;;;;;-4.02;100.00;98521.69;5017736;28;20050;-84
2021/03/07 06:26:09;;;;;;;26.10;11.45;;;;;;;-3.95;100.00;98521.72;5017835;28;20038;-82
2021/03/07 06:28:35;;;;;;;26.15;11.63;;;;;;;-3.91;100.00;98517.63;5016209;28;20080;-83
2021/03/07 06:31:01;;;;;;;22.05;11.07;;;;;;;-3.82;100.00;98516.44;5018187;28;20042;-79
2021/03/07 06:33:39;;;;;;;26.70;11.25;;;;;;;-3.73;100.00;98528.44;5000243;28;20056;-83
2021/03/07 06:36:20;;;;;;;26.83;11.60;;;;;;;-3.62;100.00;98519.91;5016885;28;20125;-82
2021/03/07 06:39:02;;;;;;;26.88;12.27;;;;;;;-3.57;100.00;98517.47;5017933;28;20064;-83
2021/03/07 06:41:31;;;;;;;28.08;12.18;;;;;;;-3.45;100.00;98518.47;5003471;28;20053;-82
2021/03/07 06:44:09;;;;;;;28.30;12.45;;;;;;;-3.37;100.00;98520.91;4999179;28;20121;-83
2021/03/07 06:46:39;;;;;;;30.58;13.50;;;;;;;-3.29;100.00;98512.78;4997816;28;20149;-82
2021/03/07 06:49:06;;;;;;;25.38;12.35;;;;;;;-3.25;100.00;98519.28;5004208;28;20049;-81
2021/03/07 06:51:36;;;;;;;25.70;11.80;;;;;;;-3.07;100.00;98512.56;5011247;28;20073;-81
2021/03/07 06:54:17;;;;;;;21.80;10.80;;;;;;;-3.01;100.00;98501.94;5001126;28;20053;-81
2021/03/07 06:56:48;;;;;;;24.45;11.95;;;;;;;-2.87;100.00;98511.50;5004042;28;20052;-82
2021/03/07 06:59:19;;;;;;;23.02;11.00;;;;;;;-2.83;100.00;98517.97;5004924;28;20057;-83
2021/03/07 07:01:48;;;;;;;20.02;10.18;;;;;;;-2.74;100.00;98506.16;4999376;28;20417;-83
2021/03/07 07:04:15;;;;;;;18.08;8.77;;;;;;;-2.47;100.00;98506.84;5009738;28;20073;-83
2021/03/07 07:07:09;;;;;;;16.50;8.65;;;;;;;-2.04;100.00;98513.16;5005343;28;20362;-84
2021/03/07 07:09:36;;;;;;;13.68;6.97;;;;;;;-1.53;100.00;98514.88;5002426;28;20554;-81
2021/03/07 07:12:06;;;;;;;15.68;6.38;;;;;;;-1.07;100.00;98517.94;5008828;28;20050;-84
2021/03/07 07:14:41;;;;;;;12.45;5.13;;;;;;;-0.82;100.00;98491.31;5005814;28;20045;-83
2021/03/07 07:17:19;;;;;;;12.88;4.75;;;;;;;-0.55;100.00;98473.22;5004967;28;20046;-83
2021/03/07 07:19:52;;;;;;;13.85;5.03;;;;;;;-0.13;100.00;98488.25;5008925;28;20066;-81
2021/03/07 07:22:25;;;;;;;;;;;;;;;0.04;100.00;98499.06;4990264;28;20045;-80
2021/03/07 07:24:56;;;;;;;8.48;4.65;;;;;;;-0.14;100.00;98474.13;5009236;28;19925;-81
2021/03/07 07:27:35;;;;;;;8.02;4.57;;;;;;;0.15;100.00;98501.75;5011938;28;20493;-80
2021/03/07 07:30:17;;;;;;;9.60;4.60;;;;;;;0.27;100.00;98499.13;4987084;28;20092;-81
2021/03/07 07:32:48;;;;;;;10.55;4.65;;;;;;;0.13;100.00;98463.09;5007024;28;20050;-82
2021/03/07 07:35:27;;;;;;;10.30;4.50;;;;;;;0.32;100.00;98480.59;5002730;28;20137;-81
2021/03/07 07:38:04;;;;;;;9.30;4.43;;;;;;;0.56;100.00;98506.25;5003676;28;20038;-80
2021/03/07 07:40:38;;;;;;;7.40;4.15;;;;;;;0.76;100.00;98500.59;5003837;28;20060;-79
2021/03/07 07:43:06;;;;;;;8.52;4.40;;;;;;;0.89;100.00;98505.69;5004364;28;20310;-79
2021/03/07 07:45:33;;;;;;;8.38;4.43;;;;;;;0.99;100.00;98506.75;5013563;28;20045;-79
2021/03/07 07:48:00;;;;;;;7.97;4.10;;;;;;;1.12;100.00;98495.03;5013513;28;20048;-80
2021/03/07 07:50:36;;;;;;;9.60;4.43;;;;;;;1.18;100.00;98502.13;5013918;28;20157;-79
2021/03/07 07:53:06;;;;;;;8.23;3.90;;;;;;;1.20;100.00;98505.34;5009854;28;20429;-78
2021/03/07 07:55:52;;;;;;;13.02;4.47;;;;;;;1.23;100.00;98481.72;5018810;28;20042;-79
2021/03/07 07:58:40;;;;;;;12.07;4.53;;;;;;;1.46;100.00;98488.84;5034718;28;20065;-76
2021/03/07 08:01:09;;;;;;;10.60;4.00;;;;;;;1.49;100.00;98475.03;5025772;28;20050;-77
2021/03/07 08:03:44;;;;;;;10.70;4.32;;;;;;;1.53;100.00;98499.38;5029918;28;20101;-78
2021/03/07 08:06:12;;;;;;;;;;;;;;;1.71;100.00;98493.88;5012519;28;20049;-78
2021/03/07 08:08:42;;;;;;;9.18;4.00;;;;;;;1.66;100.00;98499.09;5028023;28;19998;-77
2021/03/07 08:11:17;;;;;;;9.98;3.92;;;;;;;1.57;100.00;98496.03;5018172;28;20037;-77
2021/03/07 08:13:48;;;;;;;12.23;4.05;;;;;;;1.73;100.00;98494.47;5019643;28;20053;-78
2021/03/07 08:16:46;;;;;;;12.02;3.70;;;;;;;1.78;100.00;98498.03;5018657;28;20066;-78
2021/03/07 08:19:18;;;;;;;10.07;3.75;;;;;;;1.87;100.00;98488.59;5020250;28;20053;-77
2021/03/07 08:22:00;;;;;;;9.90;4.07;;;;;;;2.09;100.00;98488.72;5023679;28;20057;-77
2021/03/07 08:24:51;;;;;;;8.68;3.50;;;;;;;1.95;100.00;98490.09;5022051;28;20651;-76
2021/03/07 08:27:35;;;;;;;8.52;3.28;;;;;;;2.00;100.00;98478.69;5014056;28;20052;-77
2021/03/07 08:30:04;;;;;;;10.43;4.20;;;;;;;2.00;100.00;98476.81;5020043;28;20076;-77
2021/03/07 08:32:47;;;;;;;13.73;4.10;;;;;;;2.26;100.00;98467.41;5014789;28;20042;-76
2021/03/07 08:35:24;;;;;;;9.05;3.45;;;;;;;2.40;100.00;98471.41;5014291;28;20053;-78
2021/03/07 08:38:14;;;;;;;8.65;3.00;;;;;;;2.66;100.00;98468.06;5013709;28;20106;-77
2021/03/07 08:40:44;;;;;;;7.00;2.97;;;;;;;2.64;100.00;98472.03;5015853;28;20046;-78
2021/03/07 08:43:23;;;;;;;9.35;3.15;;;;;;;2.79;100.00;98470.41;5016192;28;20053;-79
2021/03/07 08:46:09;;;;;;;6.88;3.20;;;;;;;2.82;100.00;98469.94;5008979;28;20046;-79
2021/03/07 08:48:37;;;;;;;12.95;4.03;;;;;;;2.97;100.00;98469.34;4996643;28;20050;-79
2021/03/07 08:51:08;;;;;;;10.13;3.10;;;;;;;2.91;100.00;98465.81;4998487;28;20046;-80
2021/03/07 08:53:37;;;;;;;9.13;2.63;;;;;;;3.01;100.00;98459.78;5005707;28;20053;-79
2021/03/07 08:56:04;;;;;;;7.55;3.28;;;;;;;2.88;100.00;98444.91;5015952;28;20042;-79
2021/03/07 08:58:30;;;;;;;9.38;3.80;;;;;;;3.12;100.00;98456.97;5013780;28;20041;-78
2021/03/07 09:00:59;;;;;;;6.57;3.08;;;;;;;3.25;100.00;98452.34;4995907;28;20041;-80
2021/03/07 09:03:27;;;;;;;5.60;3.00;;;;;;;3.19;100.00;98446.13;5013987;28;20057;-78
2021/03/07 09:05:55;;;;;;;6.78;3.15;;;;;;;3.17;100.00;98455.44;5014304;28;20042;-81
2021/03/07 09:08:23;;;;;;;9.23;3.35;;;;;;;3.17;100.00;98448.25;5015632;28;20061;-78
2021/03/07 09:10:51;;;;;;;6.70;3.50;;;;;;;3.23;100.00;98449.13;5014029;28;20046;-80
2021/03/07 09:13:22;;;;;;;5.00;2.88;;;;;;;3.27;100.00;98450.22;5015554;28;20046;-78
2021/03/07 09:15:53;;;;;;;10.25;3.00;;;;;;;2.99;100.00;98451.97;5014063;28;20493;-79
2021/03/07 09:18:23;;;;;;;7.05;3.10;;;;;;;3.18;100.00;98455.19;5015023;28;20042;-80
2021/03/07 09:20:59;;;;;;;7.25;3.38;;;;;;;3.23;100.00;98449.13;5015062;28;20530;-79
2021/03/07 09:23:45;;;;;;;4.72;2.20;;;;;;;3.37;100.00;98443.16;5015086;28;20053;-78
2021/03/07 09:26:13;;;;;;;9.52;3.25;;;;;;;3.32;100.00;98440.41;5013665;28;20041;-80
2021/03/07 09:28:53;;;;;;;8.18;3.58;;;;;;;3.47;100.00;98461.19;5015806;28;20052;-79
2021/03/07 09:31:30;;;;;;;6.95;3.10;;;;;;;3.57;100.00;98439.91;5015796;28;20049;-79
2021/03/07 09:34:05;;;;;;;6.90;3.55;;;;;;;3.96;100.00;98436.06;5015806;28;20049;-81
2021/03/07 09:36:37;;;;;;;8.80;3.70;;;;;;;3.92;100.00;98428.78;5014976;28;20038;-79
2021/03/07 09:39:06;;;;;;;9.35;3.22;;;;;;;3.93;100.00;98439.22;4999167;28;20050;-78
2021/03/07 09:41:49;;;;;;;7.40;3.55;;;;;;;4.03;100.00;98436.66;5014674;28;20042;-78
2021/03/07 09:44:23;;;;;;;6.65;3.22;;;;;;;4.35;100.00;98444.72;4996762;28;20061;-78
2021/03/07 09:46:52;;;;;;;7.18;2.67;;;;;;;4.37;100.00;98442.59;5013276;28;20402;-80
2021/03/07 09:49:23;;;;;;;7.50;3.30;;;;;;;4.50;100.00;98433.31;5012087;28;20054;-80
2021/03/07 09:51:52;;;;;;;4.32;2.97;;;;;;;4.75;100.00;98439.69;5012688;28;20065;-80
2021/03/07 09:54:19;;;;;;;5.05;2.92;;;;;;;4.59;100.00;98437.97;5013880;28;20042;-79
2021/03/07 09:56:47;;;;;;;7.80;3.50;;;;;;;4.76;100.00;98445.88;5015172;28;20113;-80
2021/03/07 09:59:19;;;;;;;5.40;3.20;;;;;;;5.25;100.00;98433.00;5017303;28;20048;-80
2021/03/07 10:01:57;;;;;;;9.35;3.63;;;;;;;4.84;100.00;98431.97;4997419;28;20125;-79
2021/03/07 10:04:25;;;;;;;5.47;3.25;;;;;;;5.84;100.00;98426.28;5018382;28;20050;-79
2021/03/07 10:06:52;;;;;;;6.78;3.20;;;;;;;7.03;100.00;98427.69;5016283;28;20049;-77
2021/03/07 10:09:18;;;;;;;6.43;3.38;;;;;;;7.19;87.81;98418.50;5018250;28;20048;-77
2021/03/07 10:12:02;;;;;;;8.82;2.92;;;;;;;5.76;97.25;98415.22;5017009;28;20050;-81
2021/03/07 10:14:31;;;;;;;6.57;3.05;;;;;;;4.77;100.00;98420.66;5016565;28;20065;-77
2021/03/07 10:16:59;;;;;;;7.63;3.47;;;;;;;4.53;100.00;98411.38;5016613;28;20073;-79
2021/03/07 10:19:38;;;;;;;8.10;3.63;;;;;;;4.07;100.00;98413.66;5033913;23;20045;-77
2021/03/07 10:22:05;;;;;;;6.15;3.25;;;;;;;4.01;100.00;98419.22;5057731;28;20195;-78
2021/03/07 10:24:33;;;;;;;7.78;3.78;;;;;;;3.73;100.00;98417.59;5041799;28;20053;-79
2021/03/07 10:27:05;;;;;;;7.53;3.72;;;;;;;3.82;100.00;98417.97;5059831;28;20056;-79
2021/03/07 10:29:34;;;;;;;7.28;3.33;;;;;;;3.71;100.00;98415.19;5073547;28;20053;-80
2021/03/07 10:32:20;;;;;;;10.48;3.75;;;;;;;3.93;100.00;98419.66;5042036;28;20074;-81
2021/03/07 10:34:56;;;;;;;8.02;3.95;;;;;;;4.10;100.00;98415.84;5053979;28;20037;-82
2021/03/07 10:37:44;;;;;;;8.20;3.55;;;;;;;4.33;100.00;98422.75;5052632;28;20051;-80
2021/03/07 10:40:14;;;;;;;8.73;3.30;;;;;;;4.21;100.00;98414.84;5036469;28;20152;-78
2021/03/07 10:42:43;;;;;;;8.38;4.15;;;;;;;4.57;100.00;98407.13;5036381;28;20543;-80
2021/03/07 10:45:23;;;;;;;6.30;3.58;;;;;;;4.48;100.00;98417.50;5053180;28;20037;-78
2021/03/07 10:48:10;;;;;;;8.60;3.67;;;;;;;5.08;100.00;98408.25;5035633;28;20053;-79
2021/03/07 10:50:48;;;;;;;9.40;3.65;;;;;;;4.77;100.00;98408.06;5052065;28;20461;-80
2021/03/07 10:53:17;;;;;;;6.85;3.78;;;;;;;4.49;100.00;98402.22;5052720;28;20067;-78
2021/03/07 10:55:51;;;;;;;9.07;3.30;;;;;;;4.40;100.00;98410.75;5052180;28;20045;-78
2021/03/07 10:58:20;;;;;;;5.95;3.40;;;;;;;4.80;100.00;98391.44;5034607;28;20044;-78
2021/03/07 11:00:46;;;;;;;5.22;2.92;;;;;;;5.19;100.00;98404.56;5052187;28;20258;-78
2021/03/07 11:03:12;;;;;;;6.18;2.75;;;;;;;4.93;100.00;98401.72;5051042;28;20037;-79
2021/03/07 11:05:39;;;;;;;8.05;3.35;;;;;;;5.10;100.00;98396.19;5051042;28;20135;-78
2021/03/07 11:08:05;;;;;;;6.20;3.40;;;;;;;5.54;100.00;98394.75;5052373;28;20052;-78
2021/03/07 11:10:31;;;;;;;8.23;3.20;;;;;;;5.48;100.00;98389.63;5038040;28;20037;-78
2021/03/07 11:12:58;;;;;;;11.68;4.18;;;;;;;5.85;100.00;98397.56;5052804;28;20045;-79
2021/03/07 11:15:24;;;;;;;5.82;2.97;;;;;;;6.22;100.00;98380.13;5021675;28;20045;-79
2021/03/07 11:17:50;;;;;;;4.50;3.00;;;;;;;5.33;100.00;98389.56;5040155;28;20056;-80
2021/03/07 11:20:17;;;;;;;6.82;3.22;;;;;;;5.50;100.00;98387.47;5057340;28;20079;-79
2021/03/07 11:22:43;;;;;;;6.55;3.15;;;;;;;5.30;100.00;98372.09;5059487;28;20060;-79
2021/03/07 11:25:10;;;;;;;5.70;3.20;;;;;;;5.01;100.00;98381.63;5052544;28;20049;-79
2021/03/07 11:27:38;;;;;;;4.57;2.85;;;;;;;5.02;100.00;98365.28;5053009;28;20470;-78
2021/03/07 11:30:05;;;;;;;5.47;3.13;;;;;;;4.99;100.00;98352.38;5049295;28;20045;-79
2021/03/07 11:32:31;;;;;;;9.80;3.65;;;;;;;6.25;100.00;98368.84;5050377;28;20044;-78
2021/03/07 11:34:58;;;;;;;5.80;3.50;;;;;;;8.75;79.61;98353.63;5051974;28;20124;-80
2021/03/07 11:37:24;;;;;;;11.18;2.70;;;;;;;8.71;60.53;98336.41;5002542;28;20385;-79
2021/03/07 11:39:50;;;;;;;5.80;2.40;;;;;;;8.46;57.94;98343.94;5051507;28;20053;-79
2021/03/07 11:42:17;;;;;;;5.30;2.50;;;;;;;6.70;65.61;98346.47;5051550;28;20044;-78